Aviation Digital Data Service (ADDS)

Output produced by METARs form (1338 UTC 19 February 2020)
found at http://aviationweather.gov/metar/data/
 
KOEO 191315Z AUTO 28005KT 10SM CLR M21/M23 A3066 RMK AO2 T12101231